sensor_id;sensor_type;location;lat;lon;timestamp;P1;durP1;ratioP1;P2;durP2;ratioP2
19358;SDS011;9815;52.334;20.890;2024-02-23T00:00:02;12.60;;;7.23;;
19358;SDS011;9815;52.334;20.890;2024-02-23T00:02:32;12.77;;;7.20;;
19358;SDS011;9815;52.334;20.890;2024-02-23T00:05:00;11.80;;;7.23;;
19358;SDS011;9815;52.334;20.890;2024-02-23T00:07:29;13.30;;;7.03;;
19358;SDS011;9815;52.334;20.890;2024-02-23T00:09:57;11.87;;;6.33;;
19358;SDS011;9815;52.334;20.890;2024-02-23T00:12:26;13.90;;;7.70;;
19358;SDS011;9815;52.334;20.890;2024-02-23T00:14:54;10.47;;;6.77;;
19358;SDS011;9815;52.334;20.890;2024-02-23T00:17:24;16.50;;;7.97;;
19358;SDS011;9815;52.334;20.890;2024-02-23T00:19:52;12.03;;;7.37;;
19358;SDS011;9815;52.334;20.890;2024-02-23T00:22:21;11.97;;;7.07;;
19358;SDS011;9815;52.334;20.890;2024-02-23T00:24:50;11.40;;;6.67;;
19358;SDS011;9815;52.334;20.890;2024-02-23T00:27:18;12.53;;;6.87;;
19358;SDS011;9815;52.334;20.890;2024-02-23T00:29:47;14.67;;;7.80;;
19358;SDS011;9815;52.334;20.890;2024-02-23T00:32:15;13.80;;;7.23;;
19358;SDS011;9815;52.334;20.890;2024-02-23T00:34:45;14.63;;;6.80;;
19358;SDS011;9815;52.334;20.890;2024-02-23T00:37:14;11.73;;;7.07;;
19358;SDS011;9815;52.334;20.890;2024-02-23T00:39:42;9.80;;;6.70;;
19358;SDS011;9815;52.334;20.890;2024-02-23T00:42:11;15.43;;;6.97;;
19358;SDS011;9815;52.334;20.890;2024-02-23T00:44:39;11.57;;;6.53;;
19358;SDS011;9815;52.334;20.890;2024-02-23T00:47:08;10.53;;;6.73;;
19358;SDS011;9815;52.334;20.890;2024-02-23T00:49:36;10.50;;;6.50;;
19358;SDS011;9815;52.334;20.890;2024-02-23T00:52:06;12.33;;;7.30;;
19358;SDS011;9815;52.334;20.890;2024-02-23T00:54:35;10.93;;;6.83;;
19358;SDS011;9815;52.334;20.890;2024-02-23T00:57:03;12.03;;;6.70;;
19358;SDS011;9815;52.334;20.890;2024-02-23T00:59:32;10.70;;;6.77;;
19358;SDS011;9815;52.334;20.890;2024-02-23T01:02:00;8.37;;;5.70;;
19358;SDS011;9815;52.334;20.890;2024-02-23T01:04:29;13.03;;;6.37;;
19358;SDS011;9815;52.334;20.890;2024-02-23T01:06:57;9.27;;;6.13;;
19358;SDS011;9815;52.334;20.890;2024-02-23T01:09:28;10.23;;;6.63;;
19358;SDS011;9815;52.334;20.890;2024-02-23T01:11:56;9.73;;;6.00;;
19358;SDS011;9815;52.334;20.890;2024-02-23T01:14:24;10.50;;;6.73;;
19358;SDS011;9815;52.334;20.890;2024-02-23T01:16:53;10.87;;;6.37;;
19358;SDS011;9815;52.334;20.890;2024-02-23T01:19:21;11.57;;;6.23;;
19358;SDS011;9815;52.334;20.890;2024-02-23T01:21:50;8.20;;;6.00;;
19358;SDS011;9815;52.334;20.890;2024-02-23T01:24:27;10.13;;;6.40;;
19358;SDS011;9815;52.334;20.890;2024-02-23T01:26:56;13.20;;;6.40;;
19358;SDS011;9815;52.334;20.890;2024-02-23T01:29:25;9.30;;;6.23;;
19358;SDS011;9815;52.334;20.890;2024-02-23T01:31:54;9.60;;;6.20;;
19358;SDS011;9815;52.334;20.890;2024-02-23T01:34:22;9.50;;;6.43;;
19358;SDS011;9815;52.334;20.890;2024-02-23T01:36:51;8.87;;;6.20;;
19358;SDS011;9815;52.334;20.890;2024-02-23T01:39:19;9.50;;;6.13;;
19358;SDS011;9815;52.334;20.890;2024-02-23T01:41:49;9.77;;;6.53;;
19358;SDS011;9815;52.334;20.890;2024-02-23T01:44:18;9.43;;;6.03;;
19358;SDS011;9815;52.334;20.890;2024-02-23T01:46:49;9.47;;;6.47;;
19358;SDS011;9815;52.334;20.890;2024-02-23T01:49:18;7.20;;;5.60;;
19358;SDS011;9815;52.334;20.890;2024-02-23T01:51:49;10.53;;;5.90;;
19358;SDS011;9815;52.334;20.890;2024-02-23T01:54:18;7.87;;;5.77;;
19358;SDS011;9815;52.334;20.890;2024-02-23T01:56:46;8.50;;;5.50;;
19358;SDS011;9815;52.334;20.890;2024-02-23T01:59:16;12.33;;;6.07;;
19358;SDS011;9815;52.334;20.890;2024-02-23T02:01:45;7.47;;;5.57;;
19358;SDS011;9815;52.334;20.890;2024-02-23T02:04:14;10.87;;;6.03;;
19358;SDS011;9815;52.334;20.890;2024-02-23T02:06:42;8.93;;;5.80;;
19358;SDS011;9815;52.334;20.890;2024-02-23T02:09:12;8.73;;;6.03;;
19358;SDS011;9815;52.334;20.890;2024-02-23T02:11:45;9.40;;;6.20;;
19358;SDS011;9815;52.334;20.890;2024-02-23T02:14:14;8.90;;;5.90;;
19358;SDS011;9815;52.334;20.890;2024-02-23T02:16:44;8.97;;;5.80;;
19358;SDS011;9815;52.334;20.890;2024-02-23T02:19:14;9.03;;;5.50;;
19358;SDS011;9815;52.334;20.890;2024-02-23T02:21:42;7.50;;;5.13;;
19358;SDS011;9815;52.334;20.890;2024-02-23T02:24:11;8.73;;;5.57;;
19358;SDS011;9815;52.334;20.890;2024-02-23T02:26:42;10.83;;;5.50;;
19358;SDS011;9815;52.334;20.890;2024-02-23T02:29:13;7.70;;;5.43;;
19358;SDS011;9815;52.334;20.890;2024-02-23T02:31:42;10.37;;;5.57;;
19358;SDS011;9815;52.334;20.890;2024-02-23T02:34:12;9.63;;;5.97;;
19358;SDS011;9815;52.334;20.890;2024-02-23T02:36:41;7.47;;;5.40;;
19358;SDS011;9815;52.334;20.890;2024-02-23T02:39:09;9.77;;;5.57;;
19358;SDS011;9815;52.334;20.890;2024-02-23T02:41:38;7.83;;;4.97;;
19358;SDS011;9815;52.334;20.890;2024-02-23T02:44:06;8.00;;;5.40;;
19358;SDS011;9815;52.334;20.890;2024-02-23T02:46:36;8.70;;;5.13;;
19358;SDS011;9815;52.334;20.890;2024-02-23T02:49:06;7.03;;;5.00;;
19358;SDS011;9815;52.334;20.890;2024-02-23T02:51:34;9.10;;;5.37;;
19358;SDS011;9815;52.334;20.890;2024-02-23T02:54:03;8.03;;;5.30;;
19358;SDS011;9815;52.334;20.890;2024-02-23T02:56:31;8.73;;;5.30;;
19358;SDS011;9815;52.334;20.890;2024-02-23T02:58:59;9.37;;;5.10;;
19358;SDS011;9815;52.334;20.890;2024-02-23T03:01:28;7.53;;;5.03;;
19358;SDS011;9815;52.334;20.890;2024-02-23T03:03:56;6.43;;;5.00;;
19358;SDS011;9815;52.334;20.890;2024-02-23T03:06:26;8.07;;;5.03;;
19358;SDS011;9815;52.334;20.890;2024-02-23T03:08:54;8.60;;;5.30;;
19358;SDS011;9815;52.334;20.890;2024-02-23T03:11:23;7.87;;;5.30;;
19358;SDS011;9815;52.334;20.890;2024-02-23T03:13:51;8.13;;;5.30;;
19358;SDS011;9815;52.334;20.890;2024-02-23T03:16:20;8.03;;;5.10;;
19358;SDS011;9815;52.334;20.890;2024-02-23T03:18:49;7.47;;;4.90;;
19358;SDS011;9815;52.334;20.890;2024-02-23T03:21:18;6.93;;;4.73;;
19358;SDS011;9815;52.334;20.890;2024-02-23T03:23:47;9.57;;;5.37;;
19358;SDS011;9815;52.334;20.890;2024-02-23T03:26:16;9.07;;;5.43;;
19358;SDS011;9815;52.334;20.890;2024-02-23T03:28:44;8.73;;;5.70;;
19358;SDS011;9815;52.334;20.890;2024-02-23T03:31:13;8.50;;;5.30;;
19358;SDS011;9815;52.334;20.890;2024-02-23T03:33:41;10.93;;;5.10;;
19358;SDS011;9815;52.334;20.890;2024-02-23T03:36:09;8.97;;;5.60;;
19358;SDS011;9815;52.334;20.890;2024-02-23T03:38:38;11.07;;;6.17;;
19358;SDS011;9815;52.334;20.890;2024-02-23T03:41:08;9.27;;;5.57;;
19358;SDS011;9815;52.334;20.890;2024-02-23T03:43:36;8.50;;;5.53;;
19358;SDS011;9815;52.334;20.890;2024-02-23T03:46:05;7.07;;;5.50;;
19358;SDS011;9815;52.334;20.890;2024-02-23T03:48:34;11.30;;;5.70;;
19358;SDS011;9815;52.334;20.890;2024-02-23T03:51:03;9.67;;;5.77;;
19358;SDS011;9815;52.334;20.890;2024-02-23T03:53:32;9.67;;;5.50;;
19358;SDS011;9815;52.334;20.890;2024-02-23T03:56:00;8.53;;;5.90;;
19358;SDS011;9815;52.334;20.890;2024-02-23T03:58:30;7.87;;;6.10;;
19358;SDS011;9815;52.334;20.890;2024-02-23T04:00:59;8.37;;;5.60;;
19358;SDS011;9815;52.334;20.890;2024-02-23T04:03:27;14.03;;;5.70;;
19358;SDS011;9815;52.334;20.890;2024-02-23T04:05:55;7.73;;;5.53;;
19358;SDS011;9815;52.334;20.890;2024-02-23T04:08:24;8.87;;;6.30;;
19358;SDS011;9815;52.334;20.890;2024-02-23T04:10:52;9.00;;;5.87;;
19358;SDS011;9815;52.334;20.890;2024-02-23T04:13:20;9.67;;;6.00;;
19358;SDS011;9815;52.334;20.890;2024-02-23T04:15:50;11.53;;;6.27;;
19358;SDS011;9815;52.334;20.890;2024-02-23T04:18:19;10.30;;;5.83;;
19358;SDS011;9815;52.334;20.890;2024-02-23T04:20:47;12.93;;;6.20;;
19358;SDS011;9815;52.334;20.890;2024-02-23T04:23:15;13.33;;;7.50;;
19358;SDS011;9815;52.334;20.890;2024-02-23T04:25:44;9.47;;;6.63;;
19358;SDS011;9815;52.334;20.890;2024-02-23T04:28:12;13.57;;;7.50;;
19358;SDS011;9815;52.334;20.890;2024-02-23T04:30:40;10.47;;;6.67;;
19358;SDS011;9815;52.334;20.890;2024-02-23T04:33:10;12.00;;;6.97;;
19358;SDS011;9815;52.334;20.890;2024-02-23T04:35:39;12.30;;;7.37;;
19358;SDS011;9815;52.334;20.890;2024-02-23T04:38:07;12.50;;;7.97;;
19358;SDS011;9815;52.334;20.890;2024-02-23T04:40:36;11.20;;;6.97;;
19358;SDS011;9815;52.334;20.890;2024-02-23T04:43:05;14.90;;;7.70;;
19358;SDS011;9815;52.334;20.890;2024-02-23T04:45:33;13.37;;;7.87;;
19358;SDS011;9815;52.334;20.890;2024-02-23T04:48:01;13.50;;;8.30;;
19358;SDS011;9815;52.334;20.890;2024-02-23T04:50:31;14.60;;;7.47;;
19358;SDS011;9815;52.334;20.890;2024-02-23T04:53:00;11.97;;;7.97;;
19358;SDS011;9815;52.334;20.890;2024-02-23T04:55:28;15.27;;;8.93;;
19358;SDS011;9815;52.334;20.890;2024-02-23T04:57:56;16.07;;;9.23;;
19358;SDS011;9815;52.334;20.890;2024-02-23T05:00:25;14.90;;;8.73;;
19358;SDS011;9815;52.334;20.890;2024-02-23T05:02:59;20.63;;;9.93;;
19358;SDS011;9815;52.334;20.890;2024-02-23T05:05:32;11.77;;;7.10;;
19358;SDS011;9815;52.334;20.890;2024-02-23T05:08:00;16.33;;;8.33;;
19358;SDS011;9815;52.334;20.890;2024-02-23T05:10:29;15.50;;;8.00;;
19358;SDS011;9815;52.334;20.890;2024-02-23T05:12:57;14.30;;;7.77;;
19358;SDS011;9815;52.334;20.890;2024-02-23T05:15:25;17.53;;;8.80;;
19358;SDS011;9815;52.334;20.890;2024-02-23T05:17:53;13.57;;;8.50;;
19358;SDS011;9815;52.334;20.890;2024-02-23T05:20:22;14.37;;;8.30;;
19358;SDS011;9815;52.334;20.890;2024-02-23T05:22:51;13.73;;;7.70;;
19358;SDS011;9815;52.334;20.890;2024-02-23T05:25:20;12.70;;;7.53;;
19358;SDS011;9815;52.334;20.890;2024-02-23T05:27:48;12.57;;;7.73;;
19358;SDS011;9815;52.334;20.890;2024-02-23T05:30:17;16.50;;;8.77;;
19358;SDS011;9815;52.334;20.890;2024-02-23T05:32:45;10.03;;;6.67;;
19358;SDS011;9815;52.334;20.890;2024-02-23T05:35:14;12.03;;;7.67;;
19358;SDS011;9815;52.334;20.890;2024-02-23T05:37:42;11.23;;;6.37;;
19358;SDS011;9815;52.334;20.890;2024-02-23T05:40:12;9.43;;;6.23;;
19358;SDS011;9815;52.334;20.890;2024-02-23T05:42:41;17.37;;;6.30;;
19358;SDS011;9815;52.334;20.890;2024-02-23T05:45:09;11.80;;;6.37;;
19358;SDS011;9815;52.334;20.890;2024-02-23T05:47:37;9.57;;;6.40;;
19358;SDS011;9815;52.334;20.890;2024-02-23T05:50:12;12.47;;;6.40;;
19358;SDS011;9815;52.334;20.890;2024-02-23T05:52:40;13.20;;;6.67;;
19358;SDS011;9815;52.334;20.890;2024-02-23T05:55:09;9.33;;;6.57;;
19358;SDS011;9815;52.334;20.890;2024-02-23T05:57:39;11.00;;;7.03;;
19358;SDS011;9815;52.334;20.890;2024-02-23T06:00:08;11.10;;;6.70;;
19358;SDS011;9815;52.334;20.890;2024-02-23T06:02:39;10.80;;;7.13;;
19358;SDS011;9815;52.334;20.890;2024-02-23T06:05:08;11.53;;;6.27;;
19358;SDS011;9815;52.334;20.890;2024-02-23T06:07:36;9.33;;;6.07;;
19358;SDS011;9815;52.334;20.890;2024-02-23T06:10:05;9.20;;;5.67;;
19358;SDS011;9815;52.334;20.890;2024-02-23T06:12:34;9.73;;;6.50;;
19358;SDS011;9815;52.334;20.890;2024-02-23T06:15:05;9.40;;;5.73;;
19358;SDS011;9815;52.334;20.890;2024-02-23T06:17:34;11.17;;;6.33;;
19358;SDS011;9815;52.334;20.890;2024-02-23T06:20:04;8.90;;;6.43;;
19358;SDS011;9815;52.334;20.890;2024-02-23T06:22:34;11.33;;;5.87;;
19358;SDS011;9815;52.334;20.890;2024-02-23T06:25:02;14.03;;;6.23;;
19358;SDS011;9815;52.334;20.890;2024-02-23T06:27:31;12.07;;;6.90;;
19358;SDS011;9815;52.334;20.890;2024-02-23T06:29:59;9.53;;;6.40;;
19358;SDS011;9815;52.334;20.890;2024-02-23T06:32:29;9.87;;;6.30;;
19358;SDS011;9815;52.334;20.890;2024-02-23T06:34:58;11.17;;;7.00;;
19358;SDS011;9815;52.334;20.890;2024-02-23T06:37:27;10.23;;;6.53;;
19358;SDS011;9815;52.334;20.890;2024-02-23T06:39:55;10.97;;;7.40;;
19358;SDS011;9815;52.334;20.890;2024-02-23T06:42:25;10.13;;;6.47;;
19358;SDS011;9815;52.334;20.890;2024-02-23T06:44:53;12.13;;;6.83;;
19358;SDS011;9815;52.334;20.890;2024-02-23T06:47:22;10.40;;;6.40;;
19358;SDS011;9815;52.334;20.890;2024-02-23T06:49:52;9.73;;;6.63;;
19358;SDS011;9815;52.334;20.890;2024-02-23T06:52:21;11.33;;;7.00;;
19358;SDS011;9815;52.334;20.890;2024-02-23T06:54:50;10.30;;;5.93;;
19358;SDS011;9815;52.334;20.890;2024-02-23T06:57:18;11.00;;;7.43;;
19358;SDS011;9815;52.334;20.890;2024-02-23T06:59:47;16.67;;;7.73;;
19358;SDS011;9815;52.334;20.890;2024-02-23T07:02:15;11.03;;;6.90;;
19358;SDS011;9815;52.334;20.890;2024-02-23T07:04:44;10.57;;;7.07;;
19358;SDS011;9815;52.334;20.890;2024-02-23T07:07:14;12.23;;;7.57;;
19358;SDS011;9815;52.334;20.890;2024-02-23T07:09:42;11.73;;;7.33;;
19358;SDS011;9815;52.334;20.890;2024-02-23T07:12:10;10.90;;;7.17;;
19358;SDS011;9815;52.334;20.890;2024-02-23T07:14:40;15.50;;;7.10;;
19358;SDS011;9815;52.334;20.890;2024-02-23T07:17:08;11.03;;;7.50;;
19358;SDS011;9815;52.334;20.890;2024-02-23T07:19:37;13.30;;;7.40;;
19358;SDS011;9815;52.334;20.890;2024-02-23T07:22:05;15.03;;;7.63;;
19358;SDS011;9815;52.334;20.890;2024-02-23T07:24:35;12.43;;;8.30;;
19358;SDS011;9815;52.334;20.890;2024-02-23T07:27:07;14.00;;;7.43;;
19358;SDS011;9815;52.334;20.890;2024-02-23T07:29:36;14.63;;;7.23;;
19358;SDS011;9815;52.334;20.890;2024-02-23T07:32:05;12.03;;;7.47;;
19358;SDS011;9815;52.334;20.890;2024-02-23T07:34:34;11.40;;;8.00;;
19358;SDS011;9815;52.334;20.890;2024-02-23T07:37:03;14.07;;;7.07;;
19358;SDS011;9815;52.334;20.890;2024-02-23T07:39:31;14.77;;;7.97;;
19358;SDS011;9815;52.334;20.890;2024-02-23T07:42:01;11.37;;;7.27;;
19358;SDS011;9815;52.334;20.890;2024-02-23T07:44:31;15.13;;;7.97;;
19358;SDS011;9815;52.334;20.890;2024-02-23T07:47:00;14.40;;;8.10;;
19358;SDS011;9815;52.334;20.890;2024-02-23T07:49:29;10.27;;;7.70;;
19358;SDS011;9815;52.334;20.890;2024-02-23T07:51:57;13.77;;;7.67;;
19358;SDS011;9815;52.334;20.890;2024-02-23T07:54:26;14.57;;;8.43;;
19358;SDS011;9815;52.334;20.890;2024-02-23T07:56:55;12.07;;;7.80;;
19358;SDS011;9815;52.334;20.890;2024-02-23T07:59:25;14.63;;;6.63;;
19358;SDS011;9815;52.334;20.890;2024-02-23T08:01:55;10.17;;;6.60;;
19358;SDS011;9815;52.334;20.890;2024-02-23T08:04:24;10.37;;;6.50;;
19358;SDS011;9815;52.334;20.890;2024-02-23T08:06:52;12.97;;;7.23;;
19358;SDS011;9815;52.334;20.890;2024-02-23T08:09:21;12.40;;;7.63;;
19358;SDS011;9815;52.334;20.890;2024-02-23T08:11:50;11.37;;;7.40;;
19358;SDS011;9815;52.334;20.890;2024-02-23T08:14:19;13.17;;;6.83;;
19358;SDS011;9815;52.334;20.890;2024-02-23T08:16:49;10.30;;;7.00;;
19358;SDS011;9815;52.334;20.890;2024-02-23T08:19:17;11.13;;;7.87;;
19358;SDS011;9815;52.334;20.890;2024-02-23T08:21:46;11.10;;;7.40;;
19358;SDS011;9815;52.334;20.890;2024-02-23T08:24:14;14.80;;;7.60;;
19358;SDS011;9815;52.334;20.890;2024-02-23T08:26:44;12.23;;;7.63;;
19358;SDS011;9815;52.334;20.890;2024-02-23T08:29:12;15.07;;;8.47;;
19358;SDS011;9815;52.334;20.890;2024-02-23T08:31:41;12.50;;;7.87;;
19358;SDS011;9815;52.334;20.890;2024-02-23T08:34:11;11.37;;;7.80;;
19358;SDS011;9815;52.334;20.890;2024-02-23T08:36:40;13.37;;;8.70;;
19358;SDS011;9815;52.334;20.890;2024-02-23T08:39:08;13.57;;;8.73;;
19358;SDS011;9815;52.334;20.890;2024-02-23T08:41:36;15.73;;;8.73;;
19358;SDS011;9815;52.334;20.890;2024-02-23T08:44:05;18.03;;;8.63;;
19358;SDS011;9815;52.334;20.890;2024-02-23T08:46:34;16.50;;;8.53;;
19358;SDS011;9815;52.334;20.890;2024-02-23T08:49:06;12.47;;;8.07;;
19358;SDS011;9815;52.334;20.890;2024-02-23T08:51:36;13.10;;;8.07;;
19358;SDS011;9815;52.334;20.890;2024-02-23T08:54:04;13.53;;;8.07;;
19358;SDS011;9815;52.334;20.890;2024-02-23T08:56:36;14.60;;;8.60;;
19358;SDS011;9815;52.334;20.890;2024-02-23T08:59:05;14.13;;;8.73;;
19358;SDS011;9815;52.334;20.890;2024-02-23T09:01:34;16.00;;;8.90;;
19358;SDS011;9815;52.334;20.890;2024-02-23T09:04:02;15.90;;;9.73;;
19358;SDS011;9815;52.334;20.890;2024-02-23T09:06:31;16.90;;;9.20;;
19358;SDS011;9815;52.334;20.890;2024-02-23T09:09:06;13.50;;;8.70;;
19358;SDS011;9815;52.334;20.890;2024-02-23T09:11:36;16.43;;;9.73;;
19358;SDS011;9815;52.334;20.890;2024-02-23T09:14:05;15.50;;;8.80;;
19358;SDS011;9815;52.334;20.890;2024-02-23T09:16:33;16.73;;;9.10;;
19358;SDS011;9815;52.334;20.890;2024-02-23T09:19:01;13.13;;;9.67;;
19358;SDS011;9815;52.334;20.890;2024-02-23T09:21:31;19.60;;;9.63;;
19358;SDS011;9815;52.334;20.890;2024-02-23T09:23:59;13.83;;;9.67;;
19358;SDS011;9815;52.334;20.890;2024-02-23T09:26:29;19.30;;;10.03;;
19358;SDS011;9815;52.334;20.890;2024-02-23T09:28:58;13.27;;;9.80;;
19358;SDS011;9815;52.334;20.890;2024-02-23T09:31:27;17.10;;;9.57;;
19358;SDS011;9815;52.334;20.890;2024-02-23T09:33:56;17.00;;;9.33;;
19358;SDS011;9815;52.334;20.890;2024-02-23T09:36:25;16.63;;;8.73;;
19358;SDS011;9815;52.334;20.890;2024-02-23T09:38:54;13.30;;;8.87;;
19358;SDS011;9815;52.334;20.890;2024-02-23T09:41:23;17.80;;;8.43;;
19358;SDS011;9815;52.334;20.890;2024-02-23T09:43:53;14.43;;;8.33;;
19358;SDS011;9815;52.334;20.890;2024-02-23T09:46:25;12.83;;;8.40;;
19358;SDS011;9815;52.334;20.890;2024-02-23T09:48:54;11.23;;;8.20;;
19358;SDS011;9815;52.334;20.890;2024-02-23T09:51:24;12.87;;;8.73;;
19358;SDS011;9815;52.334;20.890;2024-02-23T09:53:53;16.80;;;8.37;;
19358;SDS011;9815;52.334;20.890;2024-02-23T09:56:22;12.37;;;8.07;;
19358;SDS011;9815;52.334;20.890;2024-02-23T09:58:59;12.63;;;8.03;;
19358;SDS011;9815;52.334;20.890;2024-02-23T10:01:29;12.67;;;7.93;;
19358;SDS011;9815;52.334;20.890;2024-02-23T10:04:00;16.90;;;8.90;;
19358;SDS011;9815;52.334;20.890;2024-02-23T10:06:31;14.43;;;7.87;;
19358;SDS011;9815;52.334;20.890;2024-02-23T10:09:00;12.73;;;7.60;;
19358;SDS011;9815;52.334;20.890;2024-02-23T10:11:31;11.87;;;7.63;;
19358;SDS011;9815;52.334;20.890;2024-02-23T10:14:01;12.57;;;7.83;;
19358;SDS011;9815;52.334;20.890;2024-02-23T10:16:30;12.43;;;7.77;;
19358;SDS011;9815;52.334;20.890;2024-02-23T10:18:58;13.33;;;8.07;;
19358;SDS011;9815;52.334;20.890;2024-02-23T10:21:26;10.93;;;7.27;;
19358;SDS011;9815;52.334;20.890;2024-02-23T10:23:55;12.57;;;8.10;;
19358;SDS011;9815;52.334;20.890;2024-02-23T10:26:23;11.17;;;7.17;;
19358;SDS011;9815;52.334;20.890;2024-02-23T10:28:53;14.67;;;7.53;;
19358;SDS011;9815;52.334;20.890;2024-02-23T10:31:24;13.90;;;8.10;;
19358;SDS011;9815;52.334;20.890;2024-02-23T10:33:52;16.30;;;8.23;;
19358;SDS011;9815;52.334;20.890;2024-02-23T10:36:25;11.97;;;7.57;;
19358;SDS011;9815;52.334;20.890;2024-02-23T10:38:59;16.60;;;7.83;;
19358;SDS011;9815;52.334;20.890;2024-02-23T10:41:31;13.17;;;7.93;;
19358;SDS011;9815;52.334;20.890;2024-02-23T10:44:03;11.60;;;7.57;;
19358;SDS011;9815;52.334;20.890;2024-02-23T10:46:34;11.77;;;7.23;;
19358;SDS011;9815;52.334;20.890;2024-02-23T10:49:03;11.83;;;7.63;;
19358;SDS011;9815;52.334;20.890;2024-02-23T10:51:33;15.00;;;8.00;;
19358;SDS011;9815;52.334;20.890;2024-02-23T10:54:04;11.73;;;7.53;;
19358;SDS011;9815;52.334;20.890;2024-02-23T10:56:33;17.90;;;8.83;;
19358;SDS011;9815;52.334;20.890;2024-02-23T10:59:02;12.47;;;7.87;;
19358;SDS011;9815;52.334;20.890;2024-02-23T11:01:35;11.90;;;7.30;;
19358;SDS011;9815;52.334;20.890;2024-02-23T11:04:06;9.63;;;7.43;;
19358;SDS011;9815;52.334;20.890;2024-02-23T11:06:36;12.93;;;7.97;;
19358;SDS011;9815;52.334;20.890;2024-02-23T11:09:05;13.63;;;8.27;;
19358;SDS011;9815;52.334;20.890;2024-02-23T11:11:36;9.93;;;7.47;;
19358;SDS011;9815;52.334;20.890;2024-02-23T11:14:07;12.57;;;8.20;;
19358;SDS011;9815;52.334;20.890;2024-02-23T11:16:39;16.30;;;8.80;;
19358;SDS011;9815;52.334;20.890;2024-02-23T11:19:08;15.13;;;8.63;;
19358;SDS011;9815;52.334;20.890;2024-02-23T11:21:38;17.07;;;9.33;;
19358;SDS011;9815;52.334;20.890;2024-02-23T11:24:07;16.30;;;8.43;;
19358;SDS011;9815;52.334;20.890;2024-02-23T11:26:36;14.13;;;8.60;;
19358;SDS011;9815;52.334;20.890;2024-02-23T11:29:11;12.13;;;8.93;;
19358;SDS011;9815;52.334;20.890;2024-02-23T11:31:47;14.03;;;9.83;;
19358;SDS011;9815;52.334;20.890;2024-02-23T11:34:21;14.17;;;8.57;;
19358;SDS011;9815;52.334;20.890;2024-02-23T11:36:51;15.43;;;8.73;;
19358;SDS011;9815;52.334;20.890;2024-02-23T11:39:20;18.80;;;9.37;;
19358;SDS011;9815;52.334;20.890;2024-02-23T11:41:49;14.60;;;9.07;;
19358;SDS011;9815;52.334;20.890;2024-02-23T11:44:18;14.53;;;9.60;;
19358;SDS011;9815;52.334;20.890;2024-02-23T11:46:48;15.57;;;9.67;;
19358;SDS011;9815;52.334;20.890;2024-02-23T11:49:16;14.73;;;10.30;;
19358;SDS011;9815;52.334;20.890;2024-02-23T11:51:45;16.50;;;9.17;;
19358;SDS011;9815;52.334;20.890;2024-02-23T11:54:14;15.77;;;9.97;;
19358;SDS011;9815;52.334;20.890;2024-02-23T11:56:42;13.97;;;9.37;;
19358;SDS011;9815;52.334;20.890;2024-02-23T11:59:11;15.77;;;10.30;;
19358;SDS011;9815;52.334;20.890;2024-02-23T12:01:41;14.53;;;9.83;;
19358;SDS011;9815;52.334;20.890;2024-02-23T12:04:11;16.00;;;9.80;;
19358;SDS011;9815;52.334;20.890;2024-02-23T12:06:40;16.47;;;9.80;;
19358;SDS011;9815;52.334;20.890;2024-02-23T12:09:09;14.70;;;9.90;;
19358;SDS011;9815;52.334;20.890;2024-02-23T12:11:38;15.73;;;10.70;;
19358;SDS011;9815;52.334;20.890;2024-02-23T12:14:08;17.20;;;10.93;;
19358;SDS011;9815;52.334;20.890;2024-02-23T12:16:39;17.13;;;10.47;;
19358;SDS011;9815;52.334;20.890;2024-02-23T12:19:08;17.30;;;9.90;;
19358;SDS011;9815;52.334;20.890;2024-02-23T12:21:38;17.77;;;10.40;;
19358;SDS011;9815;52.334;20.890;2024-02-23T12:24:09;15.70;;;10.23;;
19358;SDS011;9815;52.334;20.890;2024-02-23T12:26:38;14.83;;;9.93;;
19358;SDS011;9815;52.334;20.890;2024-02-23T12:29:06;18.97;;;10.03;;
19358;SDS011;9815;52.334;20.890;2024-02-23T12:31:37;19.47;;;10.53;;
19358;SDS011;9815;52.334;20.890;2024-02-23T12:34:05;13.57;;;10.10;;
19358;SDS011;9815;52.334;20.890;2024-02-23T12:36:36;16.70;;;10.27;;
19358;SDS011;9815;52.334;20.890;2024-02-23T12:39:06;17.97;;;10.90;;
19358;SDS011;9815;52.334;20.890;2024-02-23T12:41:34;18.43;;;10.27;;
19358;SDS011;9815;52.334;20.890;2024-02-23T12:44:03;16.57;;;9.90;;
19358;SDS011;9815;52.334;20.890;2024-02-23T12:46:33;18.33;;;10.93;;
19358;SDS011;9815;52.334;20.890;2024-02-23T12:49:01;20.07;;;10.77;;
19358;SDS011;9815;52.334;20.890;2024-02-23T12:51:30;15.73;;;10.57;;
19358;SDS011;9815;52.334;20.890;2024-02-23T12:53:59;16.53;;;10.80;;
19358;SDS011;9815;52.334;20.890;2024-02-23T12:56:29;14.80;;;10.77;;
19358;SDS011;9815;52.334;20.890;2024-02-23T12:58:58;17.53;;;11.03;;
19358;SDS011;9815;52.334;20.890;2024-02-23T13:01:27;19.27;;;11.03;;
19358;SDS011;9815;52.334;20.890;2024-02-23T13:03:55;15.20;;;10.43;;
19358;SDS011;9815;52.334;20.890;2024-02-23T13:06:24;16.37;;;10.77;;
19358;SDS011;9815;52.334;20.890;2024-02-23T13:08:52;15.77;;;10.70;;
19358;SDS011;9815;52.334;20.890;2024-02-23T13:11:21;16.60;;;11.10;;
19358;SDS011;9815;52.334;20.890;2024-02-23T13:13:51;14.53;;;10.20;;
19358;SDS011;9815;52.334;20.890;2024-02-23T13:16:22;16.20;;;9.67;;
19358;SDS011;9815;52.334;20.890;2024-02-23T13:18:51;14.03;;;10.17;;
19358;SDS011;9815;52.334;20.890;2024-02-23T13:21:19;15.53;;;10.50;;
19358;SDS011;9815;52.334;20.890;2024-02-23T13:23:48;15.70;;;9.77;;
19358;SDS011;9815;52.334;20.890;2024-02-23T13:26:17;15.70;;;10.70;;
19358;SDS011;9815;52.334;20.890;2024-02-23T13:28:46;15.17;;;11.07;;
19358;SDS011;9815;52.334;20.890;2024-02-23T13:31:16;17.53;;;10.83;;
19358;SDS011;9815;52.334;20.890;2024-02-23T13:33:45;16.83;;;10.87;;
19358;SDS011;9815;52.334;20.890;2024-02-23T13:36:14;20.30;;;10.63;;
19358;SDS011;9815;52.334;20.890;2024-02-23T13:38:43;20.67;;;11.43;;
19358;SDS011;9815;52.334;20.890;2024-02-23T13:41:11;16.27;;;10.23;;
19358;SDS011;9815;52.334;20.890;2024-02-23T13:43:40;19.93;;;11.07;;
19358;SDS011;9815;52.334;20.890;2024-02-23T13:46:08;15.93;;;10.67;;
19358;SDS011;9815;52.334;20.890;2024-02-23T13:48:38;16.40;;;10.70;;
19358;SDS011;9815;52.334;20.890;2024-02-23T13:51:07;16.67;;;10.03;;
19358;SDS011;9815;52.334;20.890;2024-02-23T13:53:35;16.40;;;10.97;;
19358;SDS011;9815;52.334;20.890;2024-02-23T13:56:04;18.27;;;10.77;;
19358;SDS011;9815;52.334;20.890;2024-02-23T13:58:33;18.13;;;11.17;;
19358;SDS011;9815;52.334;20.890;2024-02-23T14:01:01;16.53;;;11.37;;
19358;SDS011;9815;52.334;20.890;2024-02-23T14:03:30;17.00;;;11.17;;
19358;SDS011;9815;52.334;20.890;2024-02-23T14:06:00;19.47;;;11.13;;
19358;SDS011;9815;52.334;20.890;2024-02-23T14:08:29;18.07;;;11.27;;
19358;SDS011;9815;52.334;20.890;2024-02-23T14:11:00;22.43;;;11.77;;
19358;SDS011;9815;52.334;20.890;2024-02-23T14:13:29;17.03;;;10.77;;
19358;SDS011;9815;52.334;20.890;2024-02-23T14:15:58;17.40;;;11.07;;
19358;SDS011;9815;52.334;20.890;2024-02-23T14:18:27;17.00;;;11.43;;
19358;SDS011;9815;52.334;20.890;2024-02-23T14:20:58;21.67;;;12.17;;
19358;SDS011;9815;52.334;20.890;2024-02-23T14:23:28;18.83;;;10.73;;
19358;SDS011;9815;52.334;20.890;2024-02-23T14:25:57;16.80;;;11.80;;
19358;SDS011;9815;52.334;20.890;2024-02-23T14:28:25;19.07;;;12.00;;
19358;SDS011;9815;52.334;20.890;2024-02-23T14:30:54;21.40;;;11.53;;
19358;SDS011;9815;52.334;20.890;2024-02-23T14:33:22;20.93;;;12.50;;
19358;SDS011;9815;52.334;20.890;2024-02-23T14:35:51;19.30;;;13.07;;
19358;SDS011;9815;52.334;20.890;2024-02-23T14:38:19;18.77;;;13.10;;
19358;SDS011;9815;52.334;20.890;2024-02-23T14:40:50;21.90;;;13.57;;
19358;SDS011;9815;52.334;20.890;2024-02-23T14:43:19;25.10;;;14.93;;
19358;SDS011;9815;52.334;20.890;2024-02-23T14:45:47;23.37;;;14.73;;